MMNL/NLD METAR and TAF weather

Enter ICAO airport designator
Station Type Date Time Source
MMNL METAR 2019/05/26 00:40 UTC NOAA

MMNL 260040Z 13016KT 10SM FEW160 33/19 A2986 RMK 8/070 ISOL SC


Station Type Date Time Source
MMNL Decoded METAR 2019/05/26 00:40 UTC NOAA

Nuevo Laredo International , Mexico (MMNL) 27-26N 099-34W
May 25, 2019 - 08:40 PM EDT / 2019.05.26 0040 UTC
Wind: from the SE (130 degrees) at 18 MPH (16 KT):0
Visibility: 10 mile(s):0
Sky conditions: mostly clear
Temperature: 91 F (33 C)
Dew Point: 66 F (19 C)
Relative Humidity: 43%
Pressure (altimeter): 29.86 in. Hg (1011 hPa)
ob: MMNL 260040Z 13016KT 10SM FEW160 33/19 A2986 RMK 8/070 ISOL SC
cycle: 0

Station Type Date Time Source
MMNL TAF 2019/05/25 18:29 UTC NOAA

TAF MMNL 251722Z 2518/2618 15020KT P6SM SCT025
FM260100 15015KT P6SM SCT030
FM261000 15012KT 6SM HZ BKN015 OVC020
FM261500 15015G25KT P6SM SCT015 BKN020

Example: see airport list